Flugplatz Lauenbrück

Für EDHU sind keine METAR/TAF Berichte vorhanden.
Es werden die Flugwettermeldungen vom Flugplatz Hamburg-Finkenwerder in 40 km Entfernung angezeigt.

Bericht für EDHI

vom 23.02. um 22:50 UTC

Wind 11 kt aus 260°

Sichtweite 10 km oder mehr

aufgebrochene Bewölkung in 4500 ft

Temperatur 4.0°C

Taupunkt 2.0°C

Luftfeuchtigkeit 87%

Luftdruck 1014 hPa

EDHI 232250Z AUTO 26011KT 9999 // BKN045/// 04/02 Q1014
Keine Prognose (TAF) verfügbar.
Impressum